This is the latest recevied weather packets stored in our database for station/object W0JRT-6. If no packets are shown the sender has not sent any weather packets the latest 1 day(s).
| Time | Temp. | Humidity | Pressure | Rain* | Wind** | Luminosity | Snow |
|---|---|---|---|---|---|---|---|
| 1778021404 | 12.78° C | 77% | 1008.5 hPa | 6.1 mm | 0 m/s | - | - |
| 1778020248 | 12.78° C | 74% | 1008.1 hPa | 6.1 mm | 0 m/s | - | - |
| 1778020197 | 12.78° C | 74% | 1008.1 hPa | 6.1 mm | 0 m/s | - | - |
| 1778019609 | 12.78° C | 74% | 1008.2 hPa | 6.1 mm | 0.89 m/s, 322° | - | - |
| 1778019006 | 12.78° C | 73% | 1008.3 hPa | 6.1 mm | 0 m/s | - | - |
| 1778018403 | 12.78° C | 74% | 1008.4 hPa | 6.1 mm | 0.45 m/s, 333° | - | - |
| 1778017808 | 12.78° C | 76% | 1008.6 hPa | 6.1 mm | 0 m/s | - | - |
| 1778016659 | 12.78° C | 72% | 1008.6 hPa | 6.1 mm | 0 m/s | - | - |
| 1778016602 | 12.78° C | 72% | 1008.6 hPa | 6.1 mm | 0 m/s | - | - |
| 1778016014 | 12.22° C | 74% | 1008.8 hPa | 6.1 mm | 0 m/s | - | - |
| 1778015403 | 12.22° C | 73% | 1008.7 hPa | 6.1 mm | 0.45 m/s, 327° | - | - |
| 1778012404 | 11.67° C | 74% | 1009.3 hPa | 6.1 mm | 1.34 m/s, 330° | - | - |
| 1778010607 | 11.67° C | 76% | 1009.2 hPa | 6.1 mm | 0.89 m/s, 345° | - | - |
| 1778009405 | 11.67° C | 74% | 1009.3 hPa | 6.1 mm | 0 m/s | - | - |
| 1778008810 | 11.67° C | 78% | 1009.4 hPa | 6.1 mm | 1.34 m/s, 352° | - | - |
| 1778007604 | 11.67° C | 79% | 1009.4 hPa | 6.1 mm | 0.89 m/s, 343° | - | - |
| 1778006401 | 11.11° C | 78% | 1009.5 hPa | 6.1 mm | 0.89 m/s, 28° | - | - |
| 1778005198 | 11.11° C | 83% | 1009.7 hPa | 6.1 mm | 0.89 m/s, 230° | - | - |
| 1778004600 | 11.11° C | 84% | 1009.8 hPa | 6.1 mm | 0.89 m/s, 182° | - | - |
| 1778002202 | 10° C | 87% | 1010.8 hPa | 6.1 mm | 0.45 m/s, 18° | - | - |
| 1778001598 | 10° C | 89% | 1010.7 hPa | 5.84 mm | 0 m/s | - | - |
| 1778001002 | 10° C | 89% | 1010.6 hPa | 5.84 mm | 0.45 m/s, 338° | - | - |
| 1778000407 | 10° C | 87% | 1010.6 hPa | 5.59 mm | 0.89 m/s, 19° | - | - |
| 1777999205 | 10° C | 87% | 1010.7 hPa | 5.59 mm | 0.89 m/s, 18° | - | - |
| 1777998600 | 10° C | 89% | 1010.7 hPa | 5.59 mm | 0.89 m/s, 28° | - | - |
* Rain since midnight (hover to see other rain measurements)
** Current wind speed in m/s (hover to see current wind gust speed)